createdAt,value
2022-10-03T00:00:02.010Z,95.03
2022-10-03T00:01:01.985Z,95.13
2022-10-03T00:02:02.077Z,95.28
2022-10-03T00:03:02.032Z,95.28
2022-10-03T00:04:01.956Z,95.48
2022-10-03T00:05:01.942Z,95.28
2022-10-03T00:06:01.951Z,95.07
2022-10-03T00:07:01.927Z,95.34
2022-10-03T00:08:01.930Z,94.97
2022-10-03T00:09:01.902Z,94.97
2022-10-03T00:10:01.920Z,94.97
2022-10-03T00:11:01.881Z,95.18
2022-10-03T00:12:01.868Z,95.07
2022-10-03T00:13:01.870Z,95.34
2022-10-03T00:14:01.843Z,95.48
2022-10-03T00:15:01.830Z,95.38
2022-10-03T00:16:01.925Z,94.97
2022-10-03T00:17:01.816Z,94.77
2022-10-03T00:18:01.800Z,95.18
2022-10-03T00:19:01.782Z,95.07
2022-10-03T00:20:01.822Z,95.18
2022-10-03T00:21:01.781Z,95.28
2022-10-03T00:22:01.758Z,94.51
2022-10-03T00:23:01.744Z,95.38
2022-10-03T00:24:01.752Z,94.51
2022-10-03T00:25:01.720Z,94.60
2022-10-03T00:26:01.715Z,94.71
2022-10-03T00:27:01.705Z,94.51
2022-10-03T00:28:01.751Z,94.40
2022-10-03T00:29:01.680Z,94.40
2022-10-03T00:30:01.695Z,94.40
2022-10-03T00:31:01.810Z,94.20
2022-10-03T00:32:01.652Z,94.60
2022-10-03T00:33:01.624Z,94.51
2022-10-03T00:34:01.636Z,94.92
2022-10-03T00:35:01.605Z,95.02
2022-10-03T00:36:01.595Z,94.60
2022-10-03T00:37:01.579Z,94.60
2022-10-03T00:38:01.572Z,94.75
2022-10-03T00:39:01.556Z,93.93
2022-10-03T00:40:01.602Z,94.10
2022-10-03T00:41:01.538Z,93.99
2022-10-03T00:42:01.526Z,93.99
2022-10-03T00:43:01.513Z,94.24
2022-10-03T00:44:01.511Z,94.40
2022-10-03T00:45:01.504Z,94.14
2022-10-03T00:46:01.486Z,94.34
2022-10-03T00:47:01.564Z,93.89
2022-10-03T00:48:01.471Z,94.24
2022-10-03T00:49:01.446Z,94.40
2022-10-03T00:50:01.438Z,94.04
2022-10-03T00:51:01.446Z,94.10
2022-10-03T00:52:01.410Z,94.20
2022-10-03T00:53:01.400Z,94.24
2022-10-03T00:54:01.387Z,94.24
2022-10-03T00:55:01.376Z,94.34
2022-10-03T00:56:01.411Z,93.93
2022-10-03T00:57:01.355Z,93.73
2022-10-03T00:58:01.345Z,93.48
2022-10-03T00:59:01.332Z,93.84
2022-10-03T01:00:01.321Z,93.73
2022-10-03T01:01:01.354Z,94.14
2022-10-03T01:02:01.350Z,93.73
2022-10-03T01:03:01.284Z,94.14
2022-10-03T01:04:01.277Z,94.04
2022-10-03T01:05:01.264Z,94.04
2022-10-03T01:06:01.261Z,94.45
2022-10-03T01:07:01.257Z,94.34
2022-10-03T01:08:01.236Z,94.45
2022-10-03T01:09:01.245Z,94.14
2022-10-03T01:10:01.211Z,94.55
2022-10-03T01:11:01.206Z,94.75
2022-10-03T01:12:01.415Z,94.75
2022-10-03T01:13:01.176Z,94.14
2022-10-03T01:14:01.202Z,94.14
2022-10-03T01:15:01.158Z,94.24
2022-10-03T01:16:01.197Z,93.84
2022-10-03T01:17:01.181Z,94.34
2022-10-03T01:18:01.127Z,94.04
2022-10-03T01:19:01.117Z,94.24
2022-10-03T01:20:01.100Z,94.49
2022-10-03T01:21:01.085Z,94.45
2022-10-03T01:22:01.085Z,94.18
2022-10-03T01:23:01.058Z,94.08
2022-10-03T01:24:01.074Z,94.18
2022-10-03T01:25:01.033Z,94.45
2022-10-03T01:26:01.032Z,94.49
2022-10-03T01:27:01.012Z,94.39
2022-10-03T01:28:01.110Z,94.14
2022-10-03T01:29:00.994Z,94.24
2022-10-03T01:30:01.013Z,94.08
2022-10-03T01:31:01.017Z,94.04
2022-10-03T01:32:00.961Z,94.39
2022-10-03T01:33:00.954Z,93.84
2022-10-03T01:34:00.941Z,94.49
2022-10-03T01:35:00.932Z,93.88
2022-10-03T01:36:00.910Z,94.49
2022-10-03T01:37:00.926Z,94.18
2022-10-03T01:38:00.904Z,94.18
2022-10-03T01:39:00.881Z,94.39
2022-10-03T01:40:00.872Z,94.29
2022-10-03T01:41:00.860Z,94.65
2022-10-03T01:42:00.866Z,95.00
2022-10-03T01:43:00.851Z,94.85
2022-10-03T01:44:00.938Z,94.96
2022-10-03T01:45:00.814Z,94.59
2022-10-03T01:46:00.806Z,95.10
2022-10-03T01:47:00.883Z,94.80
2022-10-03T01:48:00.781Z,94.70
2022-10-03T01:49:00.769Z,94.49
2022-10-03T01:50:00.756Z,94.70
2022-10-03T01:51:00.765Z,95.00
2022-10-03T01:52:00.741Z,95.00
2022-10-03T01:53:00.743Z,95.21
2022-10-03T01:54:00.713Z,94.90
2022-10-03T01:55:00.718Z,95.00
2022-10-03T01:56:00.690Z,94.49
2022-10-03T01:57:00.672Z,94.39
2022-10-03T01:58:00.661Z,95.10
2022-10-03T01:59:00.685Z,95.41
2022-10-03T02:00:00.670Z,95.51
2022-10-03T02:01:00.736Z,95.10
2022-10-03T02:02:00.659Z,95.92
2022-10-03T02:03:00.615Z,95.72
2022-10-03T02:04:00.616Z,95.51
2022-10-03T02:05:00.605Z,95.72
2022-10-03T02:06:00.571Z,96.33
2022-10-03T02:07:00.579Z,95.78
2022-10-03T02:08:00.549Z,96.03
2022-10-03T02:09:00.552Z,95.92
2022-10-03T02:10:00.526Z,95.82
2022-10-03T02:11:07.607Z,96.33
2022-10-03T02:12:00.500Z,96.03
2022-10-03T02:13:00.494Z,96.33
2022-10-03T02:14:00.481Z,96.13
2022-10-03T02:15:00.472Z,96.13
2022-10-03T02:16:00.510Z,96.13
2022-10-03T02:17:00.481Z,95.92
2022-10-03T02:18:00.441Z,95.92
2022-10-03T02:19:00.426Z,96.23
2022-10-03T02:20:00.412Z,96.33
2022-10-03T02:21:00.405Z,96.33
2022-10-03T02:22:00.398Z,96.23
2022-10-03T02:23:00.394Z,95.92
2022-10-03T02:24:00.384Z,96.33
2022-10-03T02:25:00.364Z,96.44
2022-10-03T02:26:00.365Z,96.13
2022-10-03T02:27:00.336Z,96.54
2022-10-03T02:28:00.362Z,96.33
2022-10-03T02:29:00.319Z,95.92
2022-10-03T02:30:00.307Z,96.03
2022-10-03T02:31:00.302Z,96.28
2022-10-03T02:32:00.461Z,96.28
2022-10-03T02:33:00.265Z,96.58
2022-10-03T02:34:00.269Z,96.79
2022-10-03T02:35:00.263Z,97.15
2022-10-03T02:36:00.243Z,97.15
2022-10-03T02:37:00.223Z,97.09
2022-10-03T02:38:00.219Z,96.99
2022-10-03T02:39:00.203Z,96.99
2022-10-03T02:40:00.193Z,97.30
2022-10-03T02:41:00.181Z,96.99
2022-10-03T02:42:00.164Z,96.84
2022-10-03T02:43:00.170Z,97.40
2022-10-03T02:44:00.147Z,96.89
2022-10-03T02:45:00.138Z,97.09
2022-10-03T02:46:00.239Z,97.30
2022-10-03T02:47:00.113Z,97.30
2022-10-03T02:48:27.154Z,97.09
2022-10-03T02:49:01.108Z,97.09
2022-10-03T02:50:00.076Z,96.99
2022-10-03T02:51:00.072Z,97.30
2022-10-03T02:52:00.066Z,96.99
2022-10-03T02:53:00.050Z,97.09
2022-10-03T02:54:00.028Z,97.09
2022-10-03T02:55:00.023Z,97.20
2022-10-03T02:56:00.004Z,97.30
2022-10-03T02:56:59.999Z,97.40
2022-10-03T02:57:59.994Z,97.30
2022-10-03T02:58:59.974Z,97.20
2022-10-03T02:59:59.964Z,97.20
2022-10-03T03:00:59.994Z,97.09
2022-10-03T03:02:00.001Z,97.09
2022-10-03T03:02:59.938Z,97.30
2022-10-03T03:04:00.048Z,96.99
2022-10-03T03:04:59.911Z,97.09
2022-10-03T03:05:59.899Z,97.09
2022-10-03T03:06:59.890Z,96.69
2022-10-03T03:07:59.874Z,97.20
2022-10-03T03:08:59.861Z,97.20
2022-10-03T03:09:59.865Z,97.09
2022-10-03T03:10:59.847Z,97.09
2022-10-03T03:11:59.866Z,96.58
2022-10-03T03:12:59.860Z,96.17
2022-10-03T03:13:59.804Z,95.91
2022-10-03T03:14:59.797Z,96.53
2022-10-03T03:15:59.823Z,96.42
2022-10-03T03:16:59.784Z,96.12
2022-10-03T03:17:59.758Z,96.73
2022-10-03T03:18:59.760Z,97.24
2022-10-03T03:19:59.756Z,97.20
2022-10-03T03:20:59.733Z,96.99
2022-10-03T03:21:59.735Z,96.99
2022-10-03T03:22:59.710Z,97.30
2022-10-03T03:23:59.715Z,96.99
2022-10-03T03:24:59.684Z,96.89
2022-10-03T03:25:59.664Z,97.20
2022-10-03T03:26:59.663Z,97.61
2022-10-03T03:27:59.806Z,96.99
2022-10-03T03:28:59.648Z,96.58
2022-10-03T03:29:59.635Z,96.79
2022-10-03T03:30:59.629Z,96.79
2022-10-03T03:31:59.698Z,96.83
2022-10-03T03:32:59.588Z,97.71
2022-10-03T03:33:59.586Z,97.75
2022-10-03T03:34:59.568Z,97.34
2022-10-03T03:35:59.679Z,97.14
2022-10-03T03:36:59.551Z,97.14
2022-10-03T03:37:59.541Z,97.04
2022-10-03T03:38:59.525Z,97.24
2022-10-03T03:39:59.507Z,97.34
2022-10-03T03:40:59.523Z,97.14
2022-10-03T03:41:59.593Z,97.24
2022-10-03T03:42:59.490Z,97.24
2022-10-03T03:43:59.471Z,96.94
2022-10-03T03:44:59.465Z,96.94
2022-10-03T03:45:59.495Z,97.34
2022-10-03T03:46:59.433Z,97.14
2022-10-03T03:47:59.435Z,97.45
2022-10-03T03:48:59.410Z,97.39
2022-10-03T03:49:59.410Z,97.34
2022-10-03T03:50:59.396Z,97.14
2022-10-03T03:51:59.415Z,96.73
2022-10-03T03:52:59.368Z,97.24
2022-10-03T03:53:59.354Z,97.04
2022-10-03T03:54:59.395Z,97.24
2022-10-03T03:55:59.335Z,97.34
2022-10-03T03:56:59.326Z,97.39
2022-10-03T03:57:59.347Z,96.63
2022-10-03T03:58:59.306Z,96.53
2022-10-03T03:59:59.284Z,96.67
2022-10-03T04:00:59.321Z,96.32
2022-10-03T04:01:59.319Z,96.32
2022-10-03T04:02:59.258Z,96.57
2022-10-03T04:03:59.241Z,96.57
2022-10-03T04:04:59.227Z,96.53
2022-10-03T04:05:59.229Z,96.16
2022-10-03T04:06:59.234Z,96.32
2022-10-03T04:07:59.217Z,96.22
2022-10-03T04:08:59.203Z,96.16
2022-10-03T04:09:59.182Z,96.32
2022-10-03T04:10:59.167Z,96.22
2022-10-03T04:11:59.168Z,96.06
2022-10-03T04:12:59.154Z,96.16
2022-10-03T04:13:59.139Z,96.26
2022-10-03T04:14:59.116Z,95.95
2022-10-03T04:15:59.117Z,95.86
2022-10-03T04:16:59.099Z,96.37
2022-10-03T04:17:59.084Z,96.16
2022-10-03T04:18:59.099Z,96.16
2022-10-03T04:19:59.055Z,95.75
2022-10-03T04:20:59.053Z,95.65
2022-10-03T04:21:59.047Z,95.86
2022-10-03T04:22:59.028Z,95.95
2022-10-03T04:23:59.040Z,95.86
2022-10-03T04:24:59.016Z,95.86
2022-10-03T04:25:58.992Z,95.86
2022-10-03T04:26:58.986Z,95.75
2022-10-03T04:27:59.004Z,95.95
2022-10-03T04:28:58.961Z,95.86
2022-10-03T04:29:58.948Z,96.06
2022-10-03T04:30:58.955Z,95.39
2022-10-03T04:31:59.031Z,95.69
2022-10-03T04:32:58.924Z,95.28
2022-10-03T04:33:58.897Z,95.44
2022-10-03T04:34:58.902Z,95.59
2022-10-03T04:35:58.878Z,95.69
2022-10-03T04:36:58.896Z,95.49
2022-10-03T04:37:58.855Z,95.54
2022-10-03T04:38:58.848Z,95.34
2022-10-03T04:39:58.991Z,95.39
2022-10-03T04:40:58.825Z,95.75
2022-10-03T04:41:58.817Z,95.39
2022-10-03T04:42:58.805Z,95.54
2022-10-03T04:43:58.785Z,95.34
2022-10-03T04:44:58.800Z,95.54
2022-10-03T04:45:58.849Z,95.75
2022-10-03T04:46:58.757Z,95.65
2022-10-03T04:47:58.747Z,95.59
2022-10-03T04:48:58.737Z,95.65
2022-10-03T04:49:58.765Z,96.00
2022-10-03T04:50:58.737Z,95.75
2022-10-03T04:51:58.697Z,96.00
2022-10-03T04:52:58.690Z,95.79
2022-10-03T04:53:58.706Z,95.69
2022-10-03T04:54:58.695Z,95.79
2022-10-03T04:55:58.677Z,95.90
2022-10-03T04:56:58.649Z,95.79
2022-10-03T04:58:02.693Z,95.28
2022-10-03T04:58:59.626Z,95.39
2022-10-03T04:59:58.608Z,95.59
2022-10-03T05:00:58.649Z,95.59
2022-10-03T05:01:58.626Z,95.39
2022-10-03T05:02:58.580Z,95.18
2022-10-03T05:03:58.576Z,95.18
2022-10-03T05:04:58.567Z,95.18
2022-10-03T05:05:58.540Z,95.39
2022-10-03T05:06:58.536Z,95.28
2022-10-03T05:07:58.528Z,95.59
2022-10-03T05:08:58.514Z,95.07
2022-10-03T05:10:01.909Z,95.49
2022-10-03T05:10:58.495Z,96.00
2022-10-03T05:11:58.502Z,95.69
2022-10-03T05:12:58.470Z,95.69
2022-10-03T05:13:58.450Z,95.74
2022-10-03T05:14:58.445Z,95.32
2022-10-03T05:15:58.434Z,95.53
2022-10-03T05:16:58.535Z,95.53
2022-10-03T05:17:58.413Z,96.04
2022-10-03T05:18:58.397Z,95.79
2022-10-03T05:19:58.380Z,95.74
2022-10-03T05:20:58.374Z,95.53
2022-10-03T05:21:58.360Z,95.64
2022-10-03T05:22:58.376Z,96.04
2022-10-03T05:23:58.337Z,95.07
2022-10-03T05:24:58.330Z,95.53
2022-10-03T05:26:16.322Z,95.02
2022-10-03T05:26:59.315Z,95.23
2022-10-03T05:27:58.328Z,95.43
2022-10-03T05:28:58.287Z,95.43
2022-10-03T05:29:58.283Z,95.32
2022-10-03T05:30:58.255Z,95.68
2022-10-03T05:31:58.298Z,95.53
2022-10-03T05:32:58.239Z,95.37
2022-10-03T05:33:58.270Z,95.43
2022-10-03T05:34:58.223Z,95.84
2022-10-03T05:35:58.205Z,95.94
2022-10-03T05:36:58.196Z,95.78
2022-10-03T05:37:58.188Z,95.43
2022-10-03T05:38:58.168Z,95.74
2022-10-03T05:39:58.187Z,95.74
2022-10-03T05:40:58.153Z,95.74
2022-10-03T05:42:21.049Z,95.74
2022-10-03T05:42:59.131Z,95.12
2022-10-03T05:43:58.239Z,95.64
2022-10-03T05:44:58.128Z,95.47
2022-10-03T05:45:58.135Z,95.12
2022-10-03T05:46:58.087Z,95.27
2022-10-03T05:47:58.070Z,95.06
2022-10-03T05:48:58.074Z,95.47
2022-10-03T05:49:58.045Z,95.43
2022-10-03T05:50:58.073Z,95.53
2022-10-03T05:51:58.027Z,95.53
2022-10-03T05:52:58.012Z,95.84
2022-10-03T05:53:58.010Z,95.27
2022-10-03T05:54:58.000Z,95.12
2022-10-03T05:55:57.988Z,95.32
2022-10-03T05:56:57.981Z,95.32
2022-10-03T05:57:57.958Z,95.64
2022-10-03T05:58:57.943Z,95.12
2022-10-03T05:59:57.953Z,95.02
2022-10-03T06:00:57.936Z,95.06
2022-10-03T06:01:57.935Z,95.43
2022-10-03T06:02:58.018Z,95.53
2022-10-03T06:03:57.884Z,95.53
2022-10-03T06:04:57.881Z,95.57
2022-10-03T06:05:57.880Z,95.68
2022-10-03T06:06:57.858Z,95.64
2022-10-03T06:07:57.862Z,95.53
2022-10-03T06:08:57.831Z,95.57
2022-10-03T06:09:57.823Z,95.74
2022-10-03T06:10:57.812Z,95.84
2022-10-03T06:11:57.815Z,96.04
2022-10-03T06:12:57.785Z,95.43
2022-10-03T06:13:57.788Z,95.84
2022-10-03T06:14:57.767Z,95.78
2022-10-03T06:15:57.864Z,95.84
2022-10-03T06:16:57.756Z,95.53
2022-10-03T06:17:57.730Z,95.64
2022-10-03T06:18:57.717Z,95.32
2022-10-03T06:19:57.712Z,95.32
2022-10-03T06:20:57.694Z,95.59
2022-10-03T06:21:57.700Z,95.64
2022-10-03T06:22:58.966Z,95.74
2022-10-03T06:23:57.669Z,95.79
2022-10-03T06:24:57.657Z,96.10
2022-10-03T06:25:57.642Z,95.79
2022-10-03T06:26:57.637Z,95.69
2022-10-03T06:27:57.668Z,96.51
2022-10-03T06:28:57.606Z,96.20
2022-10-03T06:29:57.600Z,96.41
2022-10-03T06:30:57.616Z,96.37
2022-10-03T06:31:57.607Z,96.67
2022-10-03T06:32:57.575Z,97.39
2022-10-03T06:33:57.556Z,97.14
2022-10-03T06:34:57.540Z,97.24
2022-10-03T06:35:57.536Z,97.24
2022-10-03T06:36:57.533Z,97.14
2022-10-03T06:37:57.523Z,97.24
2022-10-03T06:38:57.497Z,97.19
2022-10-03T06:39:57.488Z,97.14
2022-10-03T06:40:57.467Z,97.34
2022-10-03T06:41:57.467Z,97.24
2022-10-03T06:42:57.449Z,97.34
2022-10-03T06:43:57.544Z,97.14
2022-10-03T06:44:57.428Z,97.34
2022-10-03T06:45:57.490Z,97.55
2022-10-03T06:46:57.405Z,97.96
2022-10-03T06:47:57.450Z,98.02
2022-10-03T06:48:57.388Z,97.91
2022-10-03T06:49:57.375Z,98.02
2022-10-03T06:50:57.356Z,97.71
2022-10-03T06:51:57.347Z,97.30
2022-10-03T06:52:57.361Z,97.30
2022-10-03T06:53:57.344Z,97.71
2022-10-03T06:54:57.326Z,97.71
2022-10-03T06:55:57.304Z,97.61
2022-10-03T06:56:57.290Z,97.30
2022-10-03T06:57:57.294Z,97.61
2022-10-03T06:58:57.272Z,98.53
2022-10-03T06:59:57.266Z,98.58
2022-10-03T07:00:57.351Z,98.28
2022-10-03T07:01:57.325Z,98.07
2022-10-03T07:02:57.289Z,97.87
2022-10-03T07:03:57.260Z,97.97
2022-10-03T07:04:57.203Z,98.28
2022-10-03T07:05:57.196Z,98.38
2022-10-03T07:06:57.174Z,97.97
2022-10-03T07:07:57.169Z,97.97
2022-10-03T07:08:57.192Z,98.49
2022-10-03T07:09:57.150Z,98.33
2022-10-03T07:10:57.146Z,98.44
2022-10-03T07:11:57.133Z,98.85
2022-10-03T07:12:57.116Z,98.95
2022-10-03T07:13:57.115Z,98.65
2022-10-03T07:14:57.091Z,98.85
2022-10-03T07:16:20.905Z,98.65
2022-10-03T07:16:58.150Z,98.54
2022-10-03T07:17:57.065Z,98.65
2022-10-03T07:18:57.054Z,98.65
2022-10-03T07:19:57.106Z,98.74
2022-10-03T07:20:57.032Z,98.80
2022-10-03T07:21:57.010Z,98.39
2022-10-03T07:22:57.000Z,98.90
2022-10-03T07:23:56.992Z,98.80
2022-10-03T07:24:56.981Z,98.90
2022-10-03T07:25:56.973Z,98.70
2022-10-03T07:26:56.970Z,98.49
2022-10-03T07:27:56.996Z,98.75
2022-10-03T07:28:56.930Z,98.61
2022-10-03T07:29:56.936Z,98.20
2022-10-03T07:30:56.974Z,97.99
2022-10-03T07:31:56.909Z,98.10
2022-10-03T07:32:56.888Z,97.38
2022-10-03T07:33:56.887Z,97.54
2022-10-03T07:34:56.867Z,97.24
2022-10-03T07:35:56.868Z,97.29
2022-10-03T07:36:56.840Z,97.74
2022-10-03T07:37:56.839Z,96.88
2022-10-03T07:38:56.824Z,96.78
2022-10-03T07:39:56.825Z,96.94
2022-10-03T07:40:56.804Z,96.84
2022-10-03T07:41:56.781Z,95.92
2022-10-03T07:42:56.773Z,95.81
2022-10-03T07:43:56.789Z,95.47
2022-10-03T07:44:56.757Z,95.67
2022-10-03T07:45:56.786Z,95.62
2022-10-03T07:46:56.727Z,95.37
2022-10-03T07:47:56.719Z,95.28
2022-10-03T07:48:56.707Z,94.52
2022-10-03T07:49:56.713Z,93.51
2022-10-03T07:50:56.697Z,92.65
2022-10-03T07:51:56.690Z,91.33
2022-10-03T07:52:56.670Z,89.87
2022-10-03T07:53:56.648Z,89.36
2022-10-03T07:54:56.649Z,88.65
2022-10-03T07:55:56.634Z,88.54
2022-10-03T07:56:56.611Z,88.24
2022-10-03T07:57:56.612Z,88.24
2022-10-03T07:58:56.589Z,88.34
2022-10-03T07:59:56.670Z,88.04
2022-10-03T08:00:56.566Z,88.13
2022-10-03T08:01:56.597Z,88.30
2022-10-03T08:02:56.607Z,87.69
2022-10-03T08:03:56.588Z,87.89
2022-10-03T08:04:56.519Z,87.99
2022-10-03T08:05:56.513Z,88.10
2022-10-03T08:06:56.505Z,88.13
2022-10-03T08:07:56.515Z,87.99
2022-10-03T08:08:56.474Z,88.20
2022-10-03T08:09:56.489Z,88.30
2022-10-03T08:10:56.464Z,87.99
2022-10-03T08:11:56.445Z,88.26
2022-10-03T08:12:56.433Z,87.75
2022-10-03T08:13:56.424Z,87.75
2022-10-03T08:14:56.414Z,87.75
2022-10-03T08:15:56.492Z,87.95
2022-10-03T08:16:56.382Z,88.16
2022-10-03T08:17:56.393Z,88.20
2022-10-03T08:18:56.370Z,88.26
2022-10-03T08:19:56.443Z,88.26
2022-10-03T08:20:56.350Z,87.55
2022-10-03T08:21:56.328Z,88.01
2022-10-03T08:22:56.314Z,87.71
2022-10-03T08:23:56.348Z,87.20
2022-10-03T08:25:00.626Z,86.80
2022-10-03T08:25:57.281Z,87.00
2022-10-03T08:26:56.268Z,86.39
2022-10-03T08:27:56.395Z,86.59
2022-10-03T08:28:56.254Z,86.45
2022-10-03T08:29:56.257Z,86.55
2022-10-03T08:30:56.279Z,85.94
2022-10-03T08:31:56.234Z,86.25
2022-10-03T08:32:56.204Z,86.45
2022-10-03T08:33:56.206Z,86.31
2022-10-03T08:34:56.185Z,86.71
2022-10-03T08:35:56.182Z,86.51
2022-10-03T08:36:56.158Z,86.51
2022-10-03T08:37:56.155Z,85.70
2022-10-03T08:38:56.152Z,85.50
2022-10-03T08:39:56.245Z,85.90
2022-10-03T08:40:56.111Z,85.76
2022-10-03T08:41:56.098Z,86.07
2022-10-03T08:42:56.090Z,85.36
2022-10-03T08:43:56.105Z,84.85
2022-10-03T08:44:56.081Z,84.95
2022-10-03T08:45:56.060Z,84.24
2022-10-03T08:46:56.150Z,84.55
2022-10-03T08:47:56.036Z,84.75
2022-10-03T08:48:56.023Z,84.81
2022-10-03T08:49:56.021Z,84.61
2022-10-03T08:50:56.021Z,84.61
2022-10-03T08:51:55.991Z,84.56
2022-10-03T08:52:55.986Z,84.77
2022-10-03T08:53:55.967Z,83.76
2022-10-03T08:54:55.966Z,82.84
2022-10-03T08:55:55.968Z,83.45
2022-10-03T08:56:55.935Z,83.45
2022-10-03T08:57:55.926Z,82.84
2022-10-03T08:58:55.926Z,82.75
2022-10-03T08:59:55.906Z,83.55
2022-10-03T09:00:55.907Z,84.27
2022-10-03T09:01:56.029Z,83.51
2022-10-03T09:03:28.231Z,82.40
2022-10-03T09:03:56.942Z,81.52
2022-10-03T09:04:55.843Z,81.73
2022-10-03T09:05:55.844Z,82.64
2022-10-03T09:07:20.111Z,82.44
2022-10-03T09:07:56.816Z,82.30
2022-10-03T09:08:55.798Z,82.30
2022-10-03T09:09:55.798Z,82.20
2022-10-03T09:10:55.787Z,81.45
2022-10-03T09:11:55.786Z,82.22
2022-10-03T09:12:55.750Z,83.23
2022-10-03T09:13:55.752Z,82.28
2022-10-03T09:14:55.726Z,81.88
2022-10-03T09:15:55.798Z,80.50
2022-10-03T09:16:55.716Z,80.97
2022-10-03T09:17:55.705Z,82.08
2022-10-03T09:18:55.693Z,82.99
2022-10-03T09:19:55.683Z,82.04
2022-10-03T09:20:55.671Z,82.14
2022-10-03T09:21:55.655Z,81.30
2022-10-03T09:22:55.639Z,81.20
2022-10-03T09:23:55.644Z,79.58
2022-10-03T09:24:55.617Z,79.17
2022-10-03T09:25:55.607Z,79.17
2022-10-03T09:26:55.600Z,78.43
2022-10-03T09:27:55.664Z,78.53
2022-10-03T09:28:55.571Z,78.43
2022-10-03T09:29:55.580Z,78.67
2022-10-03T09:30:55.611Z,78.77
2022-10-03T09:31:55.597Z,78.97
2022-10-03T09:32:55.521Z,78.91
2022-10-03T09:33:55.510Z,78.91
2022-10-03T09:34:55.510Z,79.11
2022-10-03T09:35:55.495Z,79.79
2022-10-03T09:36:55.481Z,79.11
2022-10-03T09:37:55.467Z,79.01
2022-10-03T09:38:55.451Z,79.21
2022-10-03T09:39:55.459Z,79.82
2022-10-03T09:40:55.452Z,79.38
2022-10-03T09:41:55.422Z,78.57
2022-10-03T09:42:55.406Z,78.06
2022-10-03T09:43:55.419Z,78.13
2022-10-03T09:44:55.385Z,79.30
2022-10-03T09:45:55.384Z,78.63
2022-10-03T09:46:55.427Z,77.89
2022-10-03T09:47:55.363Z,77.19
2022-10-03T09:48:55.339Z,77.49
2022-10-03T09:49:55.342Z,77.59
2022-10-03T09:50:55.360Z,76.98
2022-10-03T09:51:55.323Z,78.30
2022-10-03T09:52:55.292Z,78.86
2022-10-03T09:53:55.290Z,77.45
2022-10-03T09:54:55.283Z,77.75
2022-10-03T09:55:55.261Z,76.10
2022-10-03T09:56:55.245Z,76.44
2022-10-03T09:57:55.249Z,78.22
2022-10-03T09:58:55.223Z,76.20
2022-10-03T09:59:55.235Z,75.90
2022-10-03T10:00:55.305Z,74.79
2022-10-03T10:01:55.200Z,76.10
2022-10-03T10:02:55.189Z,75.60
2022-10-03T10:03:55.234Z,73.72
2022-10-03T10:04:56.186Z,73.85
2022-10-03T10:05:55.146Z,75.57
2022-10-03T10:06:55.131Z,76.21
2022-10-03T10:07:55.141Z,77.08
2022-10-03T10:08:55.114Z,77.28
2022-10-03T10:09:55.115Z,76.28
2022-10-03T10:10:55.108Z,75.13
2022-10-03T10:11:55.079Z,74.73
2022-10-03T10:12:55.065Z,73.72
2022-10-03T10:14:10.233Z,74.93
2022-10-03T10:14:56.052Z,75.13
2022-10-03T10:15:55.129Z,75.74
2022-10-03T10:16:55.111Z,75.40
2022-10-03T10:17:55.015Z,76.51
2022-10-03T10:18:54.999Z,73.65
2022-10-03T10:19:55.004Z,72.04
2022-10-03T10:20:54.970Z,71.94
2022-10-03T10:21:54.969Z,71.47
2022-10-03T10:22:54.958Z,71.94
2022-10-03T10:23:54.950Z,73.14
2022-10-03T10:24:54.936Z,73.52
2022-10-03T10:25:54.935Z,73.72
2022-10-03T10:26:54.908Z,73.25
2022-10-03T10:27:54.955Z,72.04
2022-10-03T10:28:54.903Z,72.85
2022-10-03T10:29:54.869Z,72.34
2022-10-03T10:30:54.866Z,73.35
2022-10-03T10:31:54.972Z,72.24
2022-10-03T10:32:54.838Z,71.94
2022-10-03T10:33:54.830Z,71.94
2022-10-03T10:34:54.824Z,73.58
2022-10-03T10:35:54.802Z,74.79
2022-10-03T10:36:54.795Z,74.69
2022-10-03T10:37:54.789Z,74.59
2022-10-03T10:38:54.783Z,73.58
2022-10-03T10:39:54.756Z,73.08
2022-10-03T10:40:54.763Z,72.34
2022-10-03T10:41:54.734Z,74.76
2022-10-03T10:42:54.731Z,72.44
2022-10-03T10:43:54.711Z,73.75
2022-10-03T10:44:54.712Z,71.94
2022-10-03T10:45:54.695Z,71.67
2022-10-03T10:46:54.793Z,69.75
2022-10-03T10:47:54.685Z,70.46
2022-10-03T10:48:54.664Z,70.42
2022-10-03T10:50:01.459Z,71.33
2022-10-03T10:50:54.642Z,71.13
2022-10-03T10:51:54.620Z,70.93
2022-10-03T10:52:54.611Z,70.29
2022-10-03T10:53:54.607Z,70.12
2022-10-03T10:54:54.589Z,71.06
2022-10-03T10:55:54.589Z,70.66
2022-10-03T10:56:54.580Z,71.87
2022-10-03T10:57:54.565Z,71.97
2022-10-03T10:58:54.545Z,72.00
2022-10-03T10:59:54.528Z,72.11
2022-10-03T11:00:54.587Z,71.70
2022-10-03T11:01:54.511Z,72.38
2022-10-03T11:02:54.507Z,72.61
2022-10-03T11:03:54.507Z,72.51
2022-10-03T11:04:54.515Z,71.60
2022-10-03T11:05:54.461Z,71.40
2022-10-03T11:06:54.451Z,71.77
2022-10-03T11:07:54.461Z,73.42
2022-10-03T11:08:54.427Z,73.52
2022-10-03T11:09:54.414Z,73.01
2022-10-03T11:10:54.412Z,72.61
2022-10-03T11:11:54.392Z,72.11
2022-10-03T11:12:54.385Z,72.04
2022-10-03T11:13:54.381Z,72.64
2022-10-03T11:14:54.360Z,72.71
2022-10-03T11:15:54.384Z,73.05
2022-10-03T11:16:54.386Z,72.95
2022-10-03T11:17:54.323Z,72.14
2022-10-03T11:18:54.323Z,72.14
2022-10-03T11:19:54.321Z,71.53
2022-10-03T11:20:54.296Z,72.17
2022-10-03T11:21:54.276Z,72.68
2022-10-03T11:22:54.278Z,72.17
2022-10-03T11:23:54.263Z,71.84
2022-10-03T11:24:54.247Z,72.44
2022-10-03T11:25:54.240Z,72.95
2022-10-03T11:26:54.223Z,72.85
2022-10-03T11:27:54.250Z,72.91
2022-10-03T11:28:54.204Z,74.02
2022-10-03T11:29:54.197Z,72.71
2022-10-03T11:30:54.186Z,71.97
2022-10-03T11:31:54.192Z,72.27
2022-10-03T11:32:54.154Z,72.14
2022-10-03T11:33:54.139Z,71.53
2022-10-03T11:34:54.131Z,70.73
2022-10-03T11:35:54.153Z,70.42
2022-10-03T11:36:54.128Z,67.77
2022-10-03T11:37:54.093Z,70.19
2022-10-03T11:38:54.084Z,69.99
2022-10-03T11:39:54.073Z,67.97
2022-10-03T11:40:54.073Z,68.01
2022-10-03T11:41:54.054Z,69.12
2022-10-03T11:42:54.053Z,69.42
2022-10-03T11:43:57.271Z,69.12
2022-10-03T11:44:55.020Z,70.36
2022-10-03T11:45:54.082Z,71.84
2022-10-03T11:46:54.001Z,69.65
2022-10-03T11:47:53.977Z,68.31
2022-10-03T11:48:53.981Z,69.45
2022-10-03T11:49:53.979Z,71.37
2022-10-03T11:50:53.954Z,70.62
2022-10-03T11:51:54.001Z,71.64
2022-10-03T11:52:53.926Z,69.62
2022-10-03T11:54:07.448Z,70.53
2022-10-03T11:54:54.906Z,70.73
2022-10-03T11:55:53.903Z,70.09
2022-10-03T11:56:53.913Z,69.59
2022-10-03T11:57:53.868Z,67.40
2022-10-03T11:58:53.866Z,69.89
2022-10-03T11:59:53.862Z,70.29
2022-10-03T12:00:53.843Z,70.50
2022-10-03T12:01:53.892Z,69.15
2022-10-03T12:02:53.957Z,69.82
2022-10-03T12:03:53.798Z,67.91
2022-10-03T12:04:53.829Z,67.31
2022-10-03T12:05:53.779Z,68.28
2022-10-03T12:06:53.791Z,68.59
2022-10-03T12:07:58.138Z,66.67
2022-10-03T12:08:53.746Z,67.07
2022-10-03T12:09:53.733Z,67.65
2022-10-03T12:10:53.749Z,66.64
2022-10-03T12:11:53.718Z,66.14
2022-10-03T12:12:53.701Z,64.26
2022-10-03T12:13:53.701Z,64.56
2022-10-03T12:14:53.677Z,64.09
2022-10-03T12:15:53.669Z,66.71
2022-10-03T12:16:53.718Z,67.88
2022-10-03T12:17:53.647Z,68.08
2022-10-03T12:19:02.339Z,66.71
2022-10-03T12:20:01.200Z,66.50
2022-10-03T12:20:55.661Z,67.21
2022-10-03T12:21:53.616Z,66.71
2022-10-03T12:22:53.587Z,67.34
2022-10-03T12:23:53.595Z,67.44
2022-10-03T12:24:53.569Z,66.87
2022-10-03T12:25:53.550Z,66.56
2022-10-03T12:26:53.547Z,66.70
2022-10-03T12:27:53.572Z,67.80
2022-10-03T12:28:53.520Z,68.21
2022-10-03T12:29:53.507Z,68.21
2022-10-03T12:30:53.497Z,67.94
2022-10-03T12:31:53.503Z,68.34
2022-10-03T12:32:53.505Z,67.84
2022-10-03T12:33:53.486Z,67.80
2022-10-03T12:34:53.545Z,68.34
2022-10-03T12:35:54.434Z,67.33
2022-10-03T12:36:53.502Z,68.04
2022-10-03T12:37:53.411Z,68.34
2022-10-03T12:38:53.416Z,69.35
2022-10-03T12:39:53.413Z,69.18
2022-10-03T12:40:53.383Z,69.18
2022-10-03T12:41:53.368Z,69.55
2022-10-03T12:42:53.360Z,69.59
2022-10-03T12:43:53.378Z,69.79
2022-10-03T12:44:53.384Z,69.15
2022-10-03T12:45:53.375Z,69.05
2022-10-03T12:46:53.317Z,68.85
2022-10-03T12:47:56.183Z,69.45
2022-10-03T12:48:53.295Z,69.48
2022-10-03T12:49:53.289Z,70.19
2022-10-03T12:50:53.292Z,70.49
2022-10-03T12:51:53.274Z,70.89